Time;durP1;ratioP1;P1;durP2;ratioP2;P2;SDS_P1;SDS_P2;PMS_P1;PMS_P2;Temp;Humidity;BMP_temperature;BMP_pressure;BME280_temperature;BME280_humidity;BME280_pressure;Samples;Min_cycle;Max_cycle;Signal;HPM_P1;HPM_P2
2021/04/13 00:01:24;;;;;;;6.10;1.50;;;3.80;99.90;;;;;;4986121;28;20418;-67
2021/04/13 00:04:13;;;;;;;5.40;1.40;;;3.80;99.90;;;;;;4984994;28;20054;-64
2021/04/13 00:06:48;;;;;;;8.07;1.38;;;3.80;99.90;;;;;;4984685;28;20050;-65
2021/04/13 00:09:20;;;;;;;3.17;1.20;;;3.70;99.90;;;;;;4979209;28;20042;-63
2021/04/13 00:11:50;;;;;;;5.00;1.42;;;3.70;99.90;;;;;;4986470;28;20500;-65
2021/04/13 00:14:22;;;;;;;2.42;0.93;;;3.70;99.90;;;;;;4983273;28;20109;-64
2021/04/13 00:16:49;;;;;;;5.70;0.98;;;3.70;99.90;;;;;;5000688;28;20050;-63
2021/04/13 00:19:20;;;;;;;1.83;0.70;;;3.70;99.90;;;;;;4984440;28;20480;-65
2021/04/13 00:21:47;;;;;;;1.50;0.68;;;3.70;99.90;;;;;;4988321;28;20046;-61
2021/04/13 00:24:19;;;;;;;2.25;0.88;;;3.60;99.90;;;;;;4980943;28;20523;-63
2021/04/13 00:26:48;;;;;;;3.88;1.10;;;3.60;99.90;;;;;;4985749;28;20047;-65
2021/04/13 00:29:20;;;;;;;9.02;1.05;;;3.60;99.90;;;;;;4982874;28;20054;-66
2021/04/13 00:31:49;;;;;;;3.45;0.98;;;3.60;99.90;;;;;;4983849;28;20113;-63
2021/04/13 00:34:29;;;;;;;3.50;0.93;;;3.50;99.90;;;;;;4982437;28;20045;-65
2021/04/13 00:37:11;;;;;;;2.03;1.25;;;3.50;99.90;;;;;;4982892;28;20093;-63
2021/04/13 00:39:39;;;;;;;3.78;0.77;;;3.50;99.90;;;;;;4982718;28;20644;-66
2021/04/13 00:42:13;;;;;;;5.45;0.90;;;3.50;99.90;;;;;;4981570;28;20060;-63
2021/04/13 00:44:45;;;;;;;5.03;1.15;;;3.40;99.90;;;;;;4995248;28;20668;-65
2021/04/13 00:47:29;;;;;;;1.23;1.00;;;3.40;99.90;;;;;;4983934;28;20451;-62
2021/04/13 00:50:00;;;;;;;4.35;1.05;;;3.40;99.90;;;;;;4978807;28;20053;-65
2021/04/13 00:52:37;;;;;;;6.82;1.10;;;3.30;99.90;;;;;;4981962;28;20054;-63
2021/04/13 00:55:10;;;;;;;0.93;0.50;;;3.30;99.90;;;;;;4981618;28;20046;-66
2021/04/13 00:57:47;;;;;;;4.15;1.30;;;3.30;99.90;;;;;;4984875;28;20056;-65
2021/04/13 01:00:26;;;;;;;3.92;0.90;;;3.30;99.90;;;;;;4981804;28;20131;-64
2021/04/13 01:03:03;;;;;;;2.67;0.70;;;3.30;99.90;;;;;;4981652;28;20046;-65
2021/04/13 01:05:42;;;;;;;0.95;0.70;;;3.30;99.90;;;;;;4983634;28;20524;-65
2021/04/13 01:08:23;;;;;;;1.67;0.57;;;3.30;99.90;;;;;;4980297;28;20064;-65
2021/04/13 01:10:52;;;;;;;2.03;0.52;;;3.30;99.90;;;;;;4983827;28;20107;-63
2021/04/13 01:13:29;;;;;;;4.05;0.80;;;3.40;99.90;;;;;;4983114;28;20504;-63
2021/04/13 01:15:56;;;;;;;2.67;0.90;;;3.30;99.90;;;;;;4982914;28;20066;-64
2021/04/13 01:18:30;;;;;;;2.55;0.70;;;3.30;99.90;;;;;;4982745;28;20141;-62
2021/04/13 01:21:08;;;;;;;3.63;0.90;;;3.30;99.90;;;;;;4984250;28;20062;-63
2021/04/13 01:23:55;;;;;;;3.50;0.93;;;3.30;99.90;;;;;;4981678;28;20072;-66
2021/04/13 01:26:21;;;;;;;4.43;0.88;;;3.30;99.90;;;;;;4980716;28;20121;-64
2021/04/13 01:28:51;;;;;;;2.53;1.45;;;3.20;99.90;;;;;;4981814;28;20054;-65
2021/04/13 01:34:26;;;;;;;2.38;0.80;;;3.20;99.90;;;;;;4979987;28;20089;-62
2021/04/13 01:37:25;;;;;;;4.15;2.03;;;3.20;99.90;;;;;;4984569;28;20408;-65
2021/04/13 01:40:00;;;;;;;4.05;0.85;;;3.20;99.90;;;;;;4974937;28;20046;-62
2021/04/13 01:42:30;;;;;;;1.73;1.02;;;3.20;99.90;;;;;;4981530;28;20085;-65
2021/04/13 01:45:01;;;;;;;1.45;0.88;;;3.20;99.90;;;;;;4981628;28;20141;-64
2021/04/13 01:47:28;;;;;;;6.05;1.25;;;3.20;99.90;;;;;;4983916;28;20046;-64
2021/04/13 01:50:03;;;;;;;10.68;1.75;;;3.20;99.90;;;;;;4980711;28;20551;-63
2021/04/13 01:52:42;;;;;;;4.13;1.40;;;3.20;99.90;;;;;;4981723;28;20061;-65
2021/04/13 01:55:37;;;;;;;4.75;1.23;;;3.20;99.90;;;;;;4984515;28;20043;-63
2021/04/13 01:58:35;;;;;;;8.68;1.40;;;3.20;99.90;;;;;;4980431;28;20048;-66
2021/04/13 02:01:13;;;;;;;1.63;0.75;;;3.20;99.90;;;;;;4986054;28;20042;-67
2021/04/13 02:04:07;;;;;;;5.03;0.90;;;3.10;99.90;;;;;;4985481;28;20046;-63
2021/04/13 02:06:47;;;;;;;2.92;0.90;;;3.10;99.90;;;;;;4979023;28;20057;-64
2021/04/13 02:09:42;;;;;;;3.70;1.10;;;3.10;99.90;;;;;;4979710;28;20128;-63
2021/04/13 02:12:13;;;;;;;3.58;0.80;;;3.00;99.90;;;;;;4994143;28;20077;-66
2021/04/13 02:15:06;;;;;;;1.00;0.85;;;3.00;99.90;;;;;;4981887;28;20042;-67
2021/04/13 02:17:39;;;;;;;4.38;0.85;;;3.00;99.90;;;;;;4978318;28;20108;-64
2021/04/13 02:20:11;;;;;;;2.78;0.90;;;3.00;99.90;;;;;;4980873;28;20061;-63
2021/04/13 02:22:46;;;;;;;2.80;1.27;;;3.00;99.90;;;;;;4981616;28;20416;-65
2021/04/13 02:25:16;;;;;;;7.05;0.88;;;3.00;99.90;;;;;;4981356;28;20050;-62
2021/04/13 02:27:46;;;;;;;3.35;1.00;;;2.90;99.90;;;;;;4982413;28;20046;-64
2021/04/13 02:30:17;;;;;;;3.65;0.77;;;2.90;99.90;;;;;;4980484;28;20039;-64
2021/04/13 02:32:47;;;;;;;2.33;1.20;;;3.00;99.90;;;;;;4979777;28;20109;-63
2021/04/13 02:35:21;;;;;;;1.48;0.60;;;2.90;99.90;;;;;;4981124;28;20043;-63
2021/04/13 02:37:53;;;;;;;4.05;1.05;;;2.90;99.90;;;;;;4982620;28;20042;-63
2021/04/13 02:40:29;;;;;;;4.50;1.05;;;2.90;99.90;;;;;;4976201;28;20042;-65
2021/04/13 02:43:00;;;;;;;3.30;0.55;;;2.90;99.90;;;;;;4981447;28;20092;-64
2021/04/13 02:45:39;;;;;;;8.45;1.30;;;2.90;99.90;;;;;;4996920;28;20415;-63
2021/04/13 02:48:14;;;;;;;3.15;0.77;;;2.90;99.90;;;;;;4979489;28;20058;-62
2021/04/13 02:50:46;;;;;;;3.50;1.95;;;2.80;99.90;;;;;;4981450;28;20058;-64
2021/04/13 02:53:18;;;;;;;2.45;1.17;;;2.80;99.90;;;;;;4980476;28;20049;-64
2021/04/13 02:55:56;;;;;;;2.70;0.60;;;2.80;99.90;;;;;;4983203;28;20069;-65
2021/04/13 02:58:32;;;;;;;4.57;0.88;;;2.70;99.90;;;;;;4978274;28;20648;-65
2021/04/13 03:01:00;;;;;;;2.50;0.73;;;2.70;99.90;;;;;;4980227;28;20062;-67
2021/04/13 03:03:40;;;;;;;3.95;1.05;;;2.70;99.90;;;;;;4979065;28;20050;-64
2021/04/13 03:06:07;;;;;;;8.35;1.10;;;2.70;99.90;;;;;;4984232;28;20112;-65
2021/04/13 03:08:38;;;;;;;1.77;0.65;;;2.70;99.90;;;;;;4982640;28;20050;-62
2021/04/13 03:11:10;;;;;;;5.32;2.13;;;2.70;99.90;;;;;;4981705;28;20074;-65
2021/04/13 03:13:38;;;;;;;3.83;0.90;;;2.60;99.90;;;;;;4982880;28;20045;-65
2021/04/13 03:16:06;;;;;;;2.50;0.85;;;2.60;99.90;;;;;;4982220;28;20062;-65
2021/04/13 03:18:42;;;;;;;5.78;1.20;;;2.60;99.90;;;;;;4985985;28;20061;-65
2021/04/13 03:21:14;;;;;;;4.95;1.25;;;2.60;99.90;;;;;;4981925;28;20053;-66
2021/04/13 03:23:42;;;;;;;5.50;1.55;;;2.60;99.90;;;;;;4984145;28;20054;-64
2021/04/13 03:26:24;;;;;;;3.72;1.02;;;2.50;99.90;;;;;;4982999;28;20046;-62
2021/04/13 03:29:11;;;;;;;5.00;3.53;;;2.50;99.90;;;;;;4984875;28;20137;-66
2021/04/13 03:31:39;;;;;;;2.13;1.25;;;2.40;99.90;;;;;;4981914;28;20046;-63
2021/04/13 03:34:07;;;;;;;3.95;1.10;;;2.30;99.90;;;;;;4984389;28;20539;-64
2021/04/13 03:36:34;;;;;;;1.30;0.95;;;2.30;99.90;;;;;;4982413;28;20127;-63
2021/04/13 03:39:08;;;;;;;3.30;1.40;;;2.20;99.90;;;;;;4984816;28;20104;-64
2021/04/13 03:41:43;;;;;;;3.30;1.52;;;2.10;99.90;;;;;;4983831;28;20664;-66
2021/04/13 03:44:10;;;;;;;6.57;1.52;;;2.00;99.90;;;;;;4985146;28;20093;-63
2021/04/13 03:46:39;;;;;;;1.05;1.00;;;1.90;99.90;;;;;;4983891;28;20092;-64
2021/04/13 03:49:15;;;;;;;6.47;1.17;;;1.80;99.90;;;;;;4984832;28;20066;-63
2021/04/13 03:51:52;;;;;;;6.22;1.70;;;1.70;99.90;;;;;;4980999;28;20046;-63
2021/04/13 03:54:27;;;;;;;3.05;1.27;;;1.70;99.90;;;;;;4981821;28;20050;-63
2021/04/13 03:56:54;;;;;;;5.22;1.40;;;1.60;99.90;;;;;;4979623;28;20411;-62
2021/04/13 03:59:23;;;;;;;5.82;1.30;;;1.50;99.90;;;;;;4985670;28;20038;-63
2021/04/13 04:01:51;;;;;;;5.75;1.80;;;1.50;99.90;;;;;;4983031;28;20070;-62
2021/04/13 04:04:36;;;;;;;5.88;1.52;;;1.50;99.90;;;;;;4982868;28;20061;-65
2021/04/13 04:09:49;;;;;;;6.45;2.10;;;1.40;99.90;;;;;;4984580;28;20142;-62
2021/04/13 04:12:26;;;;;;;4.03;2.65;;;1.40;99.90;;;;;;4981376;28;20046;-63
2021/04/13 04:15:09;;;;;;;3.22;1.67;;;1.40;99.90;;;;;;4984413;28;20053;-63
2021/04/13 04:17:37;;;;;;;2.03;1.52;;;1.30;99.90;;;;;;4982039;28;20070;-64
2021/04/13 04:20:06;;;;;;;8.57;3.20;;;1.40;99.90;;;;;;4983018;28;20473;-66
2021/04/13 04:22:35;;;;;;;7.88;1.30;;;1.40;99.90;;;;;;4981771;28;20065;-62
2021/04/13 04:25:28;;;;;;;2.50;1.40;;;1.40;99.90;;;;;;4985576;28;20548;-63
2021/04/13 04:27:57;;;;;;;5.68;1.80;;;1.40;99.90;;;;;;4981613;28;20050;-65
2021/04/13 04:30:33;;;;;;;4.10;1.60;;;1.50;99.90;;;;;;4982477;28;20101;-64
2021/04/13 04:33:01;;;;;;;2.58;1.63;;;1.50;99.90;;;;;;4984525;28;20050;-65
2021/04/13 04:35:44;;;;;;;2.25;1.65;;;1.50;99.90;;;;;;4983481;28;20051;-63
2021/04/13 04:38:14;;;;;;;6.32;1.50;;;1.50;99.90;;;;;;4983263;28;20590;-63
2021/04/13 04:40:53;;;;;;;3.90;2.03;;;1.50;99.90;;;;;;4976334;28;20045;-64
2021/04/13 04:43:55;;;;;;;8.00;2.33;;;1.50;99.90;;;;;;4983531;28;20489;-63
2021/04/13 04:46:34;;;;;;;10.60;1.70;;;1.60;99.90;;;;;;4978802;28;20042;-64
2021/04/13 04:49:08;;;;;;;7.28;2.15;;;1.60;99.90;;;;;;4984208;28;20559;-64
2021/04/13 04:51:35;;;;;;;4.57;1.30;;;1.70;99.90;;;;;;4982550;28;20489;-66
2021/04/13 04:54:04;;;;;;;4.47;1.52;;;1.80;99.90;;;;;;4980998;28;20046;-64
2021/04/13 04:56:31;;;;;;;3.85;1.50;;;1.90;99.90;;;;;;4982722;28;20101;-66
2021/04/13 04:58:57;;;;;;;3.30;1.65;;;2.00;99.90;;;;;;4981906;28;20688;-65
2021/04/13 05:01:25;;;;;;;5.03;1.08;;;2.00;99.90;;;;;;4983278;28;20046;-64
2021/04/13 05:03:51;;;;;;;4.47;1.30;;;2.10;99.90;;;;;;4983801;28;20519;-63
2021/04/13 05:06:21;;;;;;;2.65;1.40;;;2.20;99.90;;;;;;4984079;28;20710;-63
2021/04/13 05:08:48;;;;;;;3.70;1.00;;;2.30;99.90;;;;;;4981414;28;20070;-62
2021/04/13 05:11:15;;;;;;;6.70;1.63;;;2.40;99.90;;;;;;4984441;28;20141;-64
2021/04/13 05:13:41;;;;;;;6.07;1.50;;;2.40;99.90;;;;;;4982263;28;20059;-68
2021/04/13 05:16:08;;;;;;;2.85;1.55;;;2.50;99.90;;;;;;4979252;28;20070;-64
2021/04/13 05:18:35;;;;;;;7.70;1.20;;;2.50;99.90;;;;;;4980564;28;20133;-68
2021/04/13 05:21:02;;;;;;;2.65;1.35;;;2.60;99.90;;;;;;4982196;28;20482;-65
2021/04/13 05:23:28;;;;;;;6.93;1.35;;;2.60;99.90;;;;;;4979699;28;21786;-65
2021/04/13 05:25:55;;;;;;;11.10;1.65;;;2.70;99.90;;;;;;4979558;28;20046;-68
2021/04/13 05:28:22;;;;;;;3.45;1.38;;;2.80;99.90;;;;;;4980413;28;20141;-63
2021/04/13 05:30:50;;;;;;;3.25;1.65;;;2.80;99.90;;;;;;4979886;28;20081;-63
2021/04/13 05:33:21;;;;;;;9.10;2.15;;;2.90;99.90;;;;;;4979175;28;20050;-63
2021/04/13 05:35:49;;;;;;;5.35;1.17;;;2.90;99.90;;;;;;4978119;28;20054;-63
2021/04/13 05:38:28;;;;;;;5.97;1.65;;;3.00;99.90;;;;;;4979126;28;20615;-65
2021/04/13 05:40:57;;;;;;;5.55;1.70;;;3.10;99.90;;;;;;4979497;28;20066;-66
2021/04/13 05:43:24;;;;;;;5.47;2.10;;;3.20;99.90;;;;;;4981102;28;20050;-68
2021/04/13 05:45:51;;;;;;;8.90;2.15;;;3.30;99.90;;;;;;4980298;28;20108;-66
2021/04/13 05:48:18;;;;;;;3.33;1.95;;;3.40;99.90;;;;;;4980588;28;20042;-67
2021/04/13 05:50:46;;;;;;;2.28;1.05;;;3.40;99.90;;;;;;4979364;28;20543;-67
2021/04/13 05:53:13;;;;;;;6.78;1.73;;;3.50;99.90;;;;;;4981394;28;20046;-66
2021/04/13 05:55:41;;;;;;;3.42;1.58;;;3.60;99.90;;;;;;4979972;28;20058;-64
2021/04/13 05:58:38;;;;;;;8.73;2.63;;;3.70;99.90;;;;;;4980455;28;20695;-64
2021/04/13 06:01:08;;;;;;;6.18;1.58;;;3.80;99.90;;;;;;4970387;28;20632;-64
2021/04/13 06:03:35;;;;;;;8.23;1.40;;;3.80;99.90;;;;;;4982622;28;20108;-68
2021/04/13 06:06:02;;;;;;;3.92;2.05;;;3.90;99.90;;;;;;4979452;28;20512;-66
2021/04/13 06:08:29;;;;;;;3.83;0.90;;;4.00;99.90;;;;;;4983391;28;20050;-64
2021/04/13 06:10:58;;;;;;;3.92;1.17;;;4.10;99.90;;;;;;4980501;28;20121;-68
2021/04/13 06:13:26;;;;;;;3.38;0.80;;;4.20;99.90;;;;;;4982005;28;20161;-63
2021/04/13 06:15:54;;;;;;;3.97;1.05;;;4.20;99.90;;;;;;4980907;28;20046;-66
2021/04/13 06:18:22;;;;;;;1.50;1.20;;;4.40;99.90;;;;;;4979666;28;20069;-65
2021/04/13 06:20:51;;;;;;;3.35;2.38;;;4.40;99.90;;;;;;4981024;28;20686;-64
2021/04/13 06:23:18;;;;;;;5.75;1.83;;;4.50;99.90;;;;;;4979650;28;20116;-64
2021/04/13 06:25:44;;;;;;;5.22;1.08;;;4.50;99.90;;;;;;4979825;28;20082;-64
2021/04/13 06:28:11;;;;;;;4.07;1.48;;;4.50;99.90;;;;;;4979194;28;20050;-63
2021/04/13 06:30:41;;;;;;;15.82;2.35;;;4.50;99.90;;;;;;4976327;28;20077;-65
2021/04/13 06:33:08;;;;;;;7.53;2.08;;;4.50;99.90;;;;;;4977723;28;20496;-65
2021/04/13 06:35:34;;;;;;;8.55;2.38;;;4.40;99.90;;;;;;4974983;28;20579;-65
2021/04/13 06:38:07;;;;;;;5.20;2.08;;;4.40;99.90;;;;;;4976562;28;20165;-64
2021/04/13 06:40:55;;;;;;;11.25;2.75;;;4.40;99.90;;;;;;4986111;28;20058;-66
2021/04/13 06:46:25;;;;;;;8.10;1.58;;;4.40;99.90;;;;;;4334410;22;20459;-71
2021/04/13 06:49:19;;;;;;;5.57;2.47;;;4.40;99.90;;;;;;5000092;28;20053;-72
2021/04/13 06:52:09;;;;;;;6.43;3.10;;;4.40;99.90;;;;;;4975063;28;20141;-71
2021/04/13 06:54:48;;;;;;;12.85;3.40;;;4.50;99.90;;;;;;5003139;28;20638;-68
2021/04/13 06:57:41;;;;;;;2.92;1.42;;;4.50;99.90;;;;;;4997152;28;20053;-70
2021/04/13 07:00:50;;;;;;;1.33;1.23;;;4.50;99.90;;;;;;4998311;28;20049;-68
2021/04/13 07:03:25;;;;;;;4.10;1.27;;;4.60;99.90;;;;;;5002025;28;20046;-68
2021/04/13 07:06:09;;;;;;;6.97;1.73;;;4.70;99.90;;;;;;4997571;28;20482;-68
2021/04/13 07:08:42;;;;;;;13.43;2.17;;;4.80;99.90;;;;;;4999469;28;20058;-70
2021/04/13 07:11:26;;;;;;;3.05;1.67;;;4.80;99.90;;;;;;5004698;28;20132;-69
2021/04/13 07:14:18;;;;;;;6.38;1.30;;;4.80;99.90;;;;;;5001823;28;20045;-69
2021/04/13 07:16:56;;;;;;;4.38;1.20;;;4.90;99.90;;;;;;5002920;28;20477;-71
2021/04/13 07:19:31;;;;;;;8.20;1.52;;;5.00;99.90;;;;;;5010153;28;20457;-71
2021/04/13 07:22:01;;;;;;;5.90;1.20;;;5.10;99.90;;;;;;4996026;28;20050;-70
2021/04/13 07:24:48;;;;;;;5.35;1.55;;;5.10;99.90;;;;;;4999920;28;20046;-69
2021/04/13 07:27:21;;;;;;;1.55;1.20;;;5.20;99.90;;;;;;4998009;28;20061;-72
2021/04/13 07:29:56;;;;;;;5.45;1.98;;;5.20;99.90;;;;;;5000437;28;20065;-72
2021/04/13 07:32:24;;;;;;;4.55;2.60;;;5.20;99.90;;;;;;4997674;28;20054;-68
2021/04/13 07:34:57;;;;;;;6.43;1.40;;;5.10;99.90;;;;;;4994769;28;20065;-68
2021/04/13 07:37:36;;;;;;;4.07;1.88;;;5.10;99.90;;;;;;4998151;28;20057;-68
2021/04/13 07:40:31;;;;;;;3.60;1.58;;;5.10;99.90;;;;;;4998535;28;20046;-70
2021/04/13 07:43:19;;;;;;;8.70;2.08;;;5.00;99.90;;;;;;4980458;28;20485;-68
2021/04/13 07:46:07;;;;;;;5.05;1.30;;;4.90;99.90;;;;;;4997028;28;20046;-68
2021/04/13 07:49:08;;;;;;;9.20;2.17;;;4.90;99.90;;;;;;5000014;28;20054;-70
2021/04/13 07:52:04;;;;;;;4.43;1.75;;;4.90;99.90;;;;;;4958624;28;20429;-71
2021/04/13 07:54:36;;;;;;;7.75;1.50;;;5.00;99.90;;;;;;4997212;28;20046;-69
2021/04/13 07:57:18;;;;;;;2.67;0.88;;;5.00;99.90;;;;;;4999031;28;20426;-71
2021/04/13 08:00:08;;;;;;;5.93;1.90;;;5.10;99.90;;;;;;5001880;28;20053;-68
2021/04/13 08:02:38;;;;;;;3.95;0.82;;;5.20;99.90;;;;;;5000985;28;20123;-68
2021/04/13 08:05:09;;;;;;;3.63;2.83;;;5.20;99.90;;;;;;5004479;28;20248;-69
2021/04/13 08:07:38;;;;;;;;;;;5.30;99.90;;;;;;5006792;28;20049;-72
2021/04/13 08:10:12;;;;;;;3.60;1.25;;;5.20;99.90;;;;;;5001672;28;19937;-71
2021/04/13 08:13:00;;;;;;;6.72;1.23;;;5.30;99.90;;;;;;5005692;28;20049;-70
2021/04/13 08:15:54;;;;;;;7.32;1.42;;;5.40;99.90;;;;;;4980844;28;20050;-70
2021/04/13 08:18:38;;;;;;;3.10;2.03;;;5.50;99.90;;;;;;4985170;28;20136;-68
2021/04/13 08:21:31;;;;;;;5.35;1.55;;;5.60;99.90;;;;;;1341371;28;10003019;-70
2021/04/13 08:23:59;;;;;;;5.72;1.60;;;5.70;99.90;;;;;;4656386;28;10001106;-68
2021/04/13 08:26:25;;;;;;;4.38;1.60;;;5.70;99.90;;;;;;5003752;28;20418;-70
2021/04/13 08:29:13;;;;;;;5.25;1.20;;;5.70;99.90;;;;;;5006573;28;20721;-68
2021/04/13 08:35:20;;;;;;;3.28;1.10;;;5.70;99.90;;;;;;5003254;28;20697;-68
2021/04/13 08:38:16;;;;;;;3.75;1.67;;;5.80;99.90;;;;;;5006029;28;20550;-69
2021/04/13 08:41:18;;;;;;;4.47;0.90;;;6.00;99.90;;;;;;4998369;28;20045;-69
2021/04/13 08:43:51;;;;;;;3.15;1.13;;;6.00;99.90;;;;;;5002817;28;20052;-70
2021/04/13 08:46:39;;;;;;;2.95;1.35;;;5.90;99.90;;;;;;5002506;28;20125;-68
2021/04/13 08:49:25;;;;;;;4.05;1.00;;;5.90;99.90;;;;;;5002946;28;20426;-71
2021/04/13 08:52:19;;;;;;;2.60;1.42;;;5.90;99.90;;;;;;5002374;28;20042;-69
2021/04/13 08:54:48;;;;;;;5.70;1.92;;;6.00;99.90;;;;;;5001356;28;20065;-68
2021/04/13 08:57:31;;;;;;;4.33;1.10;;;5.80;99.90;;;;;;5001718;28;20458;-70
2021/04/13 09:00:01;;;;;;;4.53;1.30;;;5.80;99.90;;;;;;5000008;28;20050;-68
2021/04/13 09:02:38;;;;;;;3.88;1.08;;;5.90;99.90;;;;;;5004957;28;20049;-68
2021/04/13 09:05:13;;;;;;;2.97;1.00;;;5.90;99.90;;;;;;5001338;28;20073;-68
2021/04/13 09:07:45;;;;;;;3.28;1.30;;;5.70;99.90;;;;;;5002322;28;20200;-70
2021/04/13 09:10:17;;;;;;;3.63;1.42;;;5.70;99.90;;;;;;4998434;28;20081;-69
2021/04/13 09:12:52;;;;;;;1.85;1.27;;;5.80;99.90;;;;;;5005150;28;20049;-70
2021/04/13 09:15:26;;;;;;;15.07;1.38;;;5.90;99.90;;;;;;5002272;28;20046;-69
2021/04/13 09:18:13;;;;;;;2.28;1.10;;;6.10;99.90;;;;;;4998888;28;20131;-72
2021/04/13 09:20:42;;;;;;;4.05;1.35;;;6.40;99.90;;;;;;4997081;28;20057;-72
2021/04/13 09:23:25;;;;;;;3.05;2.03;;;6.40;99.90;;;;;;5003384;28;20662;-69
2021/04/13 09:25:51;;;;;;;3.63;1.10;;;6.60;99.90;;;;;;4998999;28;20465;-70
2021/04/13 09:28:20;;;;;;;3.90;1.35;;;6.70;99.90;;;;;;5007656;28;20046;-69
2021/04/13 09:31:08;;;;;;;3.58;1.33;;;6.80;99.90;;;;;;5000492;28;20069;-70
2021/04/13 09:33:41;;;;;;;3.25;1.40;;;6.90;99.90;;;;;;5000850;28;20486;-69
2021/04/13 09:36:14;;;;;;;3.22;1.65;;;6.80;99.90;;;;;;4998783;28;20069;-71
2021/04/13 09:39:06;;;;;;;4.13;1.40;;;6.90;99.90;;;;;;5004878;28;20103;-68
2021/04/13 09:41:44;;;;;;;5.28;1.38;;;7.00;99.90;;;;;;4964316;28;20057;-73
2021/04/13 09:44:29;;;;;;;4.53;1.02;;;7.10;99.90;;;;;;4992708;28;20053;-68
2021/04/13 09:47:15;;;;;;;1.23;1.13;;;7.10;99.90;;;;;;5001726;28;20060;-69
2021/04/13 09:49:47;;;;;;;4.03;1.52;;;7.30;99.90;;;;;;5000959;28;20056;-68
2021/04/13 09:53:02;;;;;;;3.65;1.05;;;7.40;99.90;;;;;;4998865;28;20098;-73
2021/04/13 09:55:50;;;;;;;5.25;1.45;;;7.60;99.90;;;;;;4966549;28;20104;-69
2021/04/13 09:58:37;;;;;;;3.10;1.63;;;7.90;99.90;;;;;;4991627;28;20041;-68
2021/04/13 10:01:14;;;;;;;7.43;1.70;;;8.10;99.90;;;;;;5000258;28;20068;-73
2021/04/13 10:03:59;;;;;;;2.45;1.15;;;8.20;99.90;;;;;;5000682;28;20054;-70
2021/04/13 10:06:34;;;;;;;6.40;1.27;;;8.20;99.90;;;;;;5001391;28;20133;-68
2021/04/13 10:09:24;;;;;;;6.43;1.15;;;8.00;99.90;;;;;;4997136;28;20459;-72
2021/04/13 10:12:12;;;;;;;2.40;1.55;;;7.60;99.90;;;;;;5002873;28;20100;-70
2021/04/13 10:14:57;;;;;;;4.97;1.00;;;7.40;99.90;;;;;;4980595;28;20058;-70
2021/04/13 10:17:42;;;;;;;6.43;1.25;;;7.30;99.90;;;;;;5001023;28;20442;-69
2021/04/13 10:20:31;;;;;;;7.85;1.83;;;7.50;99.90;;;;;;4999131;28;20160;-72
2021/04/13 10:23:19;;;;;;;6.47;1.77;;;7.80;99.90;;;;;;4991298;28;20725;-73
2021/04/13 10:26:16;;;;;;;6.78;2.17;;;7.70;99.90;;;;;;5000799;28;20072;-69
2021/04/13 10:29:20;;;;;;;4.18;3.15;;;7.50;99.90;;;;;;5000411;28;20053;-70
2021/04/13 10:32:07;;;;;;;3.95;1.20;;;7.30;99.90;;;;;;4996597;28;20049;-70
2021/04/13 10:35:02;;;;;;;2.33;1.08;;;7.30;99.90;;;;;;5000619;28;20124;-69
2021/04/13 10:37:50;;;;;;;6.53;1.95;;;7.20;99.90;;;;;;4961711;28;20050;-68
2021/04/13 10:40:44;;;;;;;6.78;1.73;;;7.20;99.90;;;;;;4994826;28;20176;-69
2021/04/13 10:43:28;;;;;;;2.33;1.75;;;7.20;99.90;;;;;;5004520;28;20046;-68
2021/04/13 10:46:17;;;;;;;4.90;1.35;;;7.10;99.90;;;;;;4998251;28;20234;-67
2021/04/13 10:49:31;;;;;;;4.47;1.73;;;7.00;99.90;;;;;;4984685;28;20045;-71
2021/04/13 10:52:19;;;;;;;3.50;1.92;;;7.00;99.90;;;;;;5001624;28;20046;-68
2021/04/13 10:55:10;;;;;;;1.70;1.30;;;7.10;99.90;;;;;;4998562;28;20054;-71
2021/04/13 10:58:14;;;;;;;2.95;1.67;;;7.50;99.90;;;;;;5005976;28;20554;-69
2021/04/13 11:01:03;;;;;;;4.18;1.15;;;7.50;99.90;;;;;;4999930;28;20128;-68
2021/04/13 11:03:47;;;;;;;2.10;1.45;;;7.50;99.90;;;;;;5002562;28;20069;-73
2021/04/13 11:06:49;;;;;;;5.13;1.17;;;7.30;99.90;;;;;;4998670;28;20064;-73
2021/04/13 11:09:56;;;;;;;1.65;1.00;;;7.10;99.90;;;;;;4953597;28;20673;-70
2021/04/13 11:13:01;;;;;;;6.10;1.35;;;7.00;99.90;;;;;;5002675;28;20123;-70
2021/04/13 11:15:41;;;;;;;2.88;1.25;;;7.20;99.90;;;;;;5003105;28;20062;-69
2021/04/13 11:18:17;;;;;;;3.00;0.88;;;7.40;99.90;;;;;;4998465;28;20444;-68
2021/04/13 11:21:08;;;;;;;4.25;1.02;;;7.90;99.90;;;;;;4999047;28;20045;-69
2021/04/13 11:24:27;;;;;;;4.55;0.95;;;8.00;99.90;;;;;;4995139;28;20881;-68
2021/04/13 11:27:18;;;;;;;4.47;0.90;;;8.10;99.90;;;;;;5002872;28;20103;-69
2021/04/13 11:30:32;;;;;;;2.90;0.80;;;8.30;99.90;;;;;;4998367;28;20046;-71
2021/04/13 11:33:19;;;;;;;3.55;1.42;;;7.90;99.90;;;;;;4999186;28;20511;-72
2021/04/13 11:36:28;;;;;;;2.58;1.45;;;7.70;99.90;;;;;;5008812;28;20049;-71
2021/04/13 11:39:15;;;;;;;3.92;1.33;;;7.70;99.90;;;;;;4984517;28;20045;-72
2021/04/13 11:41:49;;;;;;;8.65;1.60;;;7.60;99.90;;;;;;5009406;28;20088;-75
2021/04/13 11:44:21;;;;;;;3.40;1.25;;;7.70;99.90;;;;;;4998657;28;20073;-69
2021/04/13 11:46:51;;;;;;;5.40;1.55;;;7.80;99.90;;;;;;5000596;28;20123;-69
2021/04/13 11:49:27;;;;;;;5.93;1.83;;;7.90;99.90;;;;;;5003050;28;20057;-70
2021/04/13 11:51:58;;;;;;;3.67;1.63;;;8.10;99.90;;;;;;4983184;28;20295;-69
2021/04/13 11:54:44;;;;;;;3.85;1.75;;;8.20;99.90;;;;;;5003380;28;20065;-69
2021/04/13 11:57:16;;;;;;;5.20;1.25;;;8.40;99.90;;;;;;5000582;28;20060;-71
2021/04/13 11:59:43;;;;;;;6.13;1.40;;;8.20;99.90;;;;;;5002901;28;20407;-69
2021/04/13 12:02:24;;;;;;;3.65;0.98;;;8.20;99.90;;;;;;5001955;28;20484;-71
2021/04/13 12:04:54;;;;;;;3.05;1.17;;;8.20;99.90;;;;;;5001483;28;20038;-68
2021/04/13 12:07:48;;;;;;;7.45;1.75;;;8.30;99.90;;;;;;5004414;28;20499;-68
2021/04/13 12:10:30;;;;;;;3.47;1.90;;;8.20;99.90;;;;;;4997949;28;20054;-71
2021/04/13 12:12:58;;;;;;;6.53;1.27;;;8.00;99.90;;;;;;4998875;28;20125;-73
2021/04/13 12:15:25;;;;;;;4.43;1.88;;;8.20;99.90;;;;;;5003900;28;20049;-70
2021/04/13 12:17:53;;;;;;;3.92;1.30;;;8.30;99.90;;;;;;5001216;28;20046;-72
2021/04/13 12:20:29;;;;;;;2.67;1.33;;;8.30;99.90;;;;;;4999903;28;20060;-69
2021/04/13 12:23:22;;;;;;;3.70;1.55;;;8.30;99.90;;;;;;5005274;28;20046;-72
2021/04/13 12:25:51;;;;;;;6.55;1.40;;;8.40;99.90;;;;;;5002476;28;20046;-71
2021/04/13 12:28:33;;;;;;;9.02;2.30;;;8.50;99.90;;;;;;5004983;28;20495;-70
2021/04/13 12:31:09;;;;;;;8.30;2.53;;;8.50;99.90;;;;;;5002414;28;20049;-69
2021/04/13 12:33:35;;;;;;;3.78;1.60;;;8.70;99.90;;;;;;5002912;28;20065;-69
2021/04/13 12:36:06;;;;;;;2.88;1.50;;;8.70;99.90;;;;;;4997036;28;20133;-71
2021/04/13 12:38:37;;;;;;;;;;;8.90;99.90;;;;;;5004449;28;20057;-71
2021/04/13 12:41:22;;;;;;;4.35;0.95;;;9.00;99.90;;;;;;4999549;28;19921;-71
2021/04/13 12:44:19;;;;;;;4.75;1.00;;;9.20;99.90;;;;;;5002896;28;20057;-68
2021/04/13 12:46:52;;;;;;;3.58;1.23;;;9.20;99.90;;;;;;4985663;28;20442;-72
2021/04/13 12:49:36;;;;;;;3.97;1.50;;;9.30;99.90;;;;;;4989077;28;20586;-74
2021/04/13 12:52:14;;;;;;;11.13;1.08;;;9.20;99.90;;;;;;4981808;28;20469;-70
2021/04/13 12:54:43;;;;;;;3.35;1.25;;;9.40;99.90;;;;;;4979023;28;20073;-72
2021/04/13 12:57:24;;;;;;;4.50;1.52;;;9.50;99.90;;;;;;4982463;28;20597;-73
2021/04/13 13:00:09;;;;;;;12.98;1.73;;;9.50;99.90;;;;;;4983435;28;20495;-73
2021/04/13 13:02:46;;;;;;;5.45;1.40;;;9.60;99.90;;;;;;4978237;28;20058;-70
2021/04/13 13:05:26;;;;;;;6.05;1.95;;;9.50;99.90;;;;;;4978434;28;20379;-71
2021/04/13 13:08:25;;;;;;;2.33;1.50;;;9.60;99.90;;;;;;4977298;28;20720;-70
2021/04/13 13:10:57;;;;;;;7.43;1.88;;;9.50;99.90;;;;;;4978314;28;20086;-68
2021/04/13 13:13:33;;;;;;;8.23;1.20;;;9.70;99.90;;;;;;4979992;28;20447;-71
2021/04/13 13:16:11;;;;;;;9.52;2.00;;;9.90;99.90;;;;;;4973566;28;20059;-72
2021/04/13 13:18:46;;;;;;;1.30;1.00;;;10.00;99.90;;;;;;4980815;28;20046;-69
2021/04/13 13:21:16;;;;;;;8.50;1.60;;;9.90;99.90;;;;;;4982778;28;20045;-70
2021/04/13 13:23:49;;;;;;;7.15;1.67;;;10.00;99.90;;;;;;4979840;28;20062;-72
2021/04/13 13:26:16;;;;;;;8.93;1.08;;;10.00;99.90;;;;;;4979998;28;20046;-74
2021/04/13 13:28:45;;;;;;;2.20;0.57;;;9.80;99.90;;;;;;4975773;28;20061;-72
2021/04/13 13:31:26;;;;;;;7.10;1.55;;;9.70;99.90;;;;;;4980166;28;20050;-72
2021/04/13 13:33:58;;;;;;;5.80;1.45;;;9.40;99.90;;;;;;4980921;28;20148;-68
2021/04/13 13:36:26;;;;;;;1.95;1.08;;;9.40;99.90;;;;;;4986601;28;20443;-71
2021/04/13 13:38:54;;;;;;;3.58;1.23;;;9.50;99.90;;;;;;4978942;28;20124;-70
2021/04/13 13:41:23;;;;;;;9.02;1.52;;;9.60;99.90;;;;;;4986203;28;20109;-70
2021/04/13 13:43:50;;;;;;;2.67;1.85;;;9.80;99.90;;;;;;4977574;28;20050;-73
2021/04/13 13:46:26;;;;;;;5.00;1.00;;;9.70;99.90;;;;;;4985251;28;20058;-68
2021/04/13 13:48:53;;;;;;;4.70;1.95;;;9.90;99.90;;;;;;4986506;28;20050;-75
2021/04/13 13:51:31;;;;;;;2.30;0.80;;;10.00;99.90;;;;;;4986320;28;20128;-70
2021/04/13 13:54:22;;;;;;;8.23;3.33;;;10.00;99.90;;;;;;4984811;28;20046;-73
2021/04/13 13:56:49;;;;;;;8.52;1.98;;;10.20;99.90;;;;;;4980349;28;20050;-71
2021/04/13 13:59:29;;;;;;;5.82;1.67;;;10.20;99.90;;;;;;4980439;28;20070;-71
2021/04/13 14:02:14;;;;;;;8.68;1.08;;;10.40;99.90;;;;;;4980714;28;20057;-68
2021/04/13 14:04:41;;;;;;;4.22;1.25;;;10.50;99.90;;;;;;4981793;28;21977;-70